Kampen, Netherlands
Current Conditions -  °F | °C
As of 1:25 AM on Monday 24 Nov 2014 (Local Time) from EHDL Reporting Station
Drizzle Drizzle  
Wind Chill:   Ceiling: 3200
Heat Index:   Visibility: 4mi
Dew Point:   Wind: 9mph
Humidity: 100%   Direction: 320°NW
Pressure: 30"   Gusts: NA
Location:  52.56°N, 5.91°E
Report Text: EHDL 240025Z AUTO 32008KT 6000 DZ FEW023 BKN032 OVC037 09/09 Q1016 WHT
Loading
Personal Weather Stations






























Interactive Weather Map New forecast layout! Learn more

10-Day Weather Forecast

Advertisements
Track Severe Weather on mobile